KVYS/VYS METAR and TAF weather

Enter ICAO airport designator
Station Type Date Time Source
KVYS METAR 2019/02/23 00:35 UTC NOAA

KVYS 230035Z AUTO 10004KT 10SM BKN090 01/M02 A3030 RMK AO2 T00141016


Station Type Date Time Source
KVYS Decoded METAR 2019/02/23 00:35 UTC NOAA

Peru, Illinois Valley Regional-Walter A Duncan Field Airport, IL, United States (KVYS) 41-21-07N 089-09-11W
Feb 22, 2019 - 07:35 PM EST / 2019.02.23 0035 UTC
Wind: from the E (100 degrees) at 5 MPH (4 KT):0
Visibility: 10 mile(s):0
Sky conditions: mostly cloudy
Temperature: 34.5 F (1.4 C)
Windchill: 30 F (-1 C):1
Dew Point: 29.1 F (-1.6 C)
Relative Humidity: 80%
Pressure (altimeter): 30.3 in. Hg (1026 hPa)
ob: KVYS 230035Z AUTO 10004KT 10SM BKN090 01/M02 A3030 RMK AO2 T00141016
cycle: 0

Station Type Date Time Source
KVYS TAF UTC NOAA

Error!


Example: see airport list